Time;durP1;ratioP1;P1;durP2;ratioP2;P2;SDS_P1;SDS_P2;PMS_P1;PMS_P2;Temp;Humidity;BMP_temperature;BMP_pressure;BME280_temperature;BME280_humidity;BME280_pressure;Samples;Min_cycle;Max_cycle;Signal;HPM_P1;HPM_P2
2022/01/25 00:33:28;;;;;;;37.55;28.38;;;5.40;99.90;;;;;;4997665;28;20399;-83
2022/01/25 00:35:54;;;;;;;41.00;28.85;;;5.40;99.90;;;;;;4988741;28;20387;-83
2022/01/25 00:38:19;;;;;;;37.45;27.98;;;5.50;99.90;;;;;;4971950;28;20423;-83
2022/01/25 00:40:45;;;;;;;39.65;27.95;;;5.50;99.90;;;;;;4979740;28;20427;-83
2022/01/25 00:43:11;;;;;;;41.05;29.83;;;5.50;99.90;;;;;;4972522;28;20395;-83
2022/01/25 00:45:36;;;;;;;38.72;29.55;;;5.50;99.90;;;;;;4991712;28;20835;-84
2022/01/25 00:48:04;;;;;;;39.90;28.13;;;5.50;99.90;;;;;;4982652;28;20381;-83
2022/01/25 00:50:37;;;;;;;39.85;28.98;;;5.50;99.90;;;;;;4987509;28;20444;-83
2022/01/25 00:55:34;;;;;;;40.38;30.27;;;5.40;99.90;;;;;;4992581;28;20383;-83
2022/01/25 00:58:02;;;;;;;40.97;30.17;;;5.40;99.90;;;;;;4976477;28;20798;-84
2022/01/25 01:00:28;;;;;;;39.70;29.30;;;5.50;99.90;;;;;;4988553;28;20461;-83
2022/01/25 01:02:54;;;;;;;38.40;29.17;;;5.50;99.90;;;;;;4977472;28;20389;-84
2022/01/25 01:05:21;;;;;;;43.92;29.85;;;5.60;99.90;;;;;;4989981;28;20399;-83
2022/01/25 01:07:47;;;;;;;39.88;28.73;;;5.50;99.90;;;;;;4977884;28;20405;-84
2022/01/25 01:10:18;;;;;;;41.17;29.95;;;5.50;99.90;;;;;;4969450;28;20460;-83
2022/01/25 01:16:07;;;;;;;42.08;30.42;;;5.40;99.90;;;;;;4944103;29;20767;-84
2022/01/25 01:32:39;;;;;;;43.35;31.65;;;4.90;99.90;;;;;;4949626;28;20493;-84
2022/01/25 01:42:55;;;;;;;44.10;32.13;;;5.10;99.90;;;;;;5005539;28;20740;-83
2022/01/25 01:47:50;;;;;;;46.75;31.95;;;5.00;99.90;;;;;;4986718;28;20409;-83
2022/01/25 01:50:28;;;;;;;41.38;30.83;;;5.00;99.90;;;;;;4995819;28;20464;-83
2022/01/25 01:52:54;;;;;;;43.85;32.25;;;5.00;99.90;;;;;;4991941;28;20870;-83
2022/01/25 01:55:20;;;;;;;42.47;32.10;;;4.90;99.90;;;;;;4970477;28;20393;-83
2022/01/25 01:57:48;;;;;;;46.13;32.78;;;4.90;99.90;;;;;;4983873;28;20946;-82
2022/01/25 02:00:16;;;;;;;50.35;34.45;;;4.90;99.90;;;;;;4991581;28;20403;-84
2022/01/25 02:02:43;;;;;;;52.28;36.05;;;4.80;99.90;;;;;;4986900;28;20393;-83
2022/01/25 02:05:09;;;;;;;53.15;35.95;;;4.70;99.90;;;;;;4969748;28;20386;-83
2022/01/25 02:07:35;;;;;;;58.20;37.60;;;4.70;99.90;;;;;;4969656;28;20397;-83
2022/01/25 02:10:01;;;;;;;51.90;36.28;;;4.50;99.90;;;;;;4968957;28;20919;-83
2022/01/25 02:12:27;;;;;;;56.70;37.10;;;4.50;99.90;;;;;;4990427;28;20403;-83
2022/01/25 02:14:54;;;;;;;57.42;38.15;;;4.50;99.90;;;;;;5000300;28;20389;-84
2022/01/25 02:23:18;;;;;;;61.45;40.08;;;4.50;99.90;;;;;;5000060;28;20902;-83
2022/01/25 02:25:46;;;;;;;59.80;39.15;;;4.50;99.90;;;;;;4992698;28;20403;-82
2022/01/25 02:28:12;;;;;;;61.17;40.43;;;4.60;99.90;;;;;;4987854;28;20390;-84
2022/01/25 02:30:39;;;;;;;61.63;39.67;;;4.50;99.90;;;;;;4993676;28;20433;-83
2022/01/25 02:33:05;;;;;;;66.20;40.63;;;4.50;99.90;;;;;;4986234;28;20385;-83
2022/01/25 02:35:31;;;;;;;65.45;40.80;;;4.40;99.90;;;;;;4986274;28;20385;-83
2022/01/25 02:37:56;;;;;;;61.05;39.25;;;4.40;99.90;;;;;;4992053;28;21246;-82
2022/01/25 02:40:22;;;;;;;65.82;41.13;;;4.40;99.90;;;;;;5004925;28;20745;-83
2022/01/25 02:42:50;;;;;;;62.37;39.40;;;4.40;99.90;;;;;;4972501;28;20393;-82
2022/01/25 02:45:17;;;;;;;62.70;39.33;;;4.50;99.90;;;;;;4970155;28;20391;-82
2022/01/25 02:50:27;;;;;;;61.00;38.47;;;4.50;99.90;;;;;;4995637;28;20409;-82
2022/01/25 02:52:53;;;;;;;62.08;40.72;;;4.50;99.90;;;;;;5004203;28;20388;-83
2022/01/25 02:55:19;;;;;;;67.33;41.13;;;4.60;99.90;;;;;;4986989;28;20389;-82
2022/01/25 02:57:48;;;;;;;66.83;40.50;;;4.50;99.90;;;;;;5002089;28;20431;-82
2022/01/25 03:00:15;;;;;;;67.40;40.47;;;4.50;99.90;;;;;;4972255;28;20394;-83
2022/01/25 03:02:40;;;;;;;65.43;40.70;;;4.50;99.90;;;;;;4971978;28;20413;-83
2022/01/25 03:05:07;;;;;;;65.63;39.50;;;4.50;99.90;;;;;;4972111;28;20963;-82
2022/01/25 03:07:33;;;;;;;66.40;40.42;;;4.40;99.90;;;;;;4990288;28;20387;-82
2022/01/25 03:10:00;;;;;;;62.10;39.28;;;4.40;99.90;;;;;;5008553;28;20407;-82
2022/01/25 03:12:47;;;;;;;62.33;38.90;;;4.40;99.90;;;;;;5006837;28;20450;-83
2022/01/25 03:17:50;;;;;;;62.83;39.28;;;4.50;99.90;;;;;;5007126;28;20757;-82
2022/01/25 03:20:34;;;;;;;58.45;37.15;;;4.40;99.90;;;;;;4989357;28;20380;-82
2022/01/25 03:23:06;;;;;;;62.05;38.33;;;4.40;99.90;;;;;;5006753;28;20399;-82
2022/01/25 03:25:32;;;;;;;56.88;36.58;;;4.40;99.90;;;;;;5006091;28;20878;-82
2022/01/25 03:27:58;;;;;;;64.75;39.63;;;4.40;99.90;;;;;;4990592;28;20396;-82
2022/01/25 03:30:25;;;;;;;60.05;38.17;;;4.50;99.90;;;;;;4988629;28;20911;-82
2022/01/25 03:32:51;;;;;;;63.10;38.45;;;4.50;99.90;;;;;;4990274;28;20407;-82
2022/01/25 03:35:17;;;;;;;64.63;37.97;;;4.50;99.90;;;;;;4990264;28;20380;-82
2022/01/25 03:37:42;;;;;;;61.60;38.05;;;4.50;99.90;;;;;;4980476;28;20749;-82
2022/01/25 03:40:09;;;;;;;60.08;38.60;;;4.50;99.90;;;;;;4995288;28;20393;-82
2022/01/25 03:42:37;;;;;;;62.20;39.63;;;4.50;99.90;;;;;;4988455;28;20385;-82
2022/01/25 03:45:07;;;;;;;60.72;38.10;;;4.50;99.90;;;;;;4988442;28;20428;-83
2022/01/25 03:47:46;;;;;;;59.03;36.78;;;4.50;99.90;;;;;;4996101;28;20406;-82
2022/01/25 03:50:11;;;;;;;55.67;36.28;;;4.50;99.90;;;;;;4996047;28;20408;-82
2022/01/25 03:52:38;;;;;;;55.08;36.47;;;4.50;99.90;;;;;;4985261;28;20966;-82
2022/01/25 03:55:05;;;;;;;60.78;37.72;;;4.50;99.90;;;;;;4971349;28;20400;-82
2022/01/25 03:57:30;;;;;;;57.67;37.03;;;4.60;99.90;;;;;;4974135;28;20392;-82
2022/01/25 03:59:59;;;;;;;56.27;36.83;;;4.50;99.90;;;;;;4988781;28;20527;-82
2022/01/25 04:02:27;;;;;;;57.22;36.67;;;4.50;99.90;;;;;;4973475;28;20428;-82
2022/01/25 04:04:53;;;;;;;58.08;36.78;;;4.50;99.90;;;;;;4988441;28;20863;-82
2022/01/25 04:07:27;;;;;;;52.60;34.53;;;4.50;99.90;;;;;;4976035;28;20406;-82
2022/01/25 04:09:53;;;;;;;54.65;35.67;;;4.60;99.90;;;;;;5005541;28;20422;-82
2022/01/25 04:12:19;;;;;;;54.67;35.42;;;4.60;99.90;;;;;;5007735;28;20747;-82
2022/01/25 04:14:45;;;;;;;54.40;34.58;;;4.60;99.90;;;;;;4986145;28;20761;-82
2022/01/25 04:17:14;;;;;;;52.38;34.42;;;4.60;99.90;;;;;;4985182;28;20767;-82
2022/01/25 04:19:44;;;;;;;53.22;35.13;;;4.60;99.90;;;;;;4983035;28;20490;-82
2022/01/25 04:27:27;;;;;;;51.47;34.20;;;4.60;99.90;;;;;;4994304;28;20531;-82
2022/01/25 04:29:52;;;;;;;55.90;35.27;;;4.50;99.90;;;;;;4987858;28;20929;-82
2022/01/25 04:32:20;;;;;;;53.83;35.27;;;4.50;99.90;;;;;;4991191;28;20954;-83
2022/01/25 04:59:34;;;;;;;56.50;35.78;;;4.40;99.90;;;;;;4992049;28;20746;-82
2022/01/25 05:02:08;;;;;;;53.10;34.95;;;4.30;99.90;;;;;;4987472;28;21027;-82
2022/01/25 05:04:40;;;;;;;53.67;36.10;;;4.30;99.90;;;;;;4994471;28;20391;-82
2022/01/25 05:09:43;;;;;;;53.65;34.90;;;4.30;99.90;;;;;;4999583;28;20417;-83
2022/01/25 05:12:09;;;;;;;54.50;35.03;;;4.30;99.90;;;;;;4987430;28;20451;-82
2022/01/25 05:14:46;;;;;;;57.28;36.05;;;4.40;99.90;;;;;;4987563;28;20399;-82
2022/01/25 05:17:17;;;;;;;52.95;35.10;;;4.40;99.90;;;;;;4988792;28;20480;-82
2022/01/25 05:22:26;;;;;;;54.88;35.53;;;4.30;99.90;;;;;;5005620;28;20403;-82
2022/01/25 05:24:52;;;;;;;54.38;35.55;;;4.40;99.90;;;;;;4972527;28;20479;-82
2022/01/25 05:27:21;;;;;;;54.77;34.87;;;4.40;99.90;;;;;;4969730;28;20786;-82
2022/01/25 05:29:47;;;;;;;55.67;35.22;;;4.50;99.90;;;;;;4979169;28;20889;-82
2022/01/25 05:32:13;;;;;;;55.78;36.53;;;4.50;99.90;;;;;;4988841;28;20875;-82
2022/01/25 05:34:39;;;;;;;55.90;36.25;;;4.60;99.90;;;;;;4987257;28;20397;-83
2022/01/25 05:37:07;;;;;;;55.50;36.20;;;4.50;99.90;;;;;;4970350;28;20455;-82
2022/01/25 05:39:36;;;;;;;54.63;37.03;;;4.50;99.90;;;;;;4986589;28;20810;-82
2022/01/25 05:45:10;;;;;;;55.53;35.55;;;4.50;99.90;;;;;;4987658;28;20385;-81
2022/01/25 05:47:35;;;;;;;58.85;37.50;;;4.40;99.90;;;;;;4987013;28;20428;-83
2022/01/25 05:50:01;;;;;;;58.83;37.55;;;4.40;99.90;;;;;;4986455;28;20440;-84
2022/01/25 05:52:27;;;;;;;55.70;36.40;;;4.50;99.90;;;;;;4987890;28;20401;-83
2022/01/25 05:54:52;;;;;;;59.33;37.92;;;4.60;99.90;;;;;;4969200;28;20405;-83
2022/01/25 05:57:18;;;;;;;59.92;38.50;;;4.40;99.90;;;;;;4994950;28;20428;-83
2022/01/25 05:59:44;;;;;;;60.50;38.90;;;4.40;99.90;;;;;;4989808;28;20906;-82
2022/01/25 06:02:10;;;;;;;61.30;39.75;;;4.50;99.90;;;;;;4969619;28;20979;-83
2022/01/25 06:04:36;;;;;;;65.45;41.65;;;4.40;99.90;;;;;;5003482;28;22320;-82
2022/01/25 06:07:01;;;;;;;64.83;41.27;;;4.50;99.90;;;;;;4996926;28;20499;-82
2022/01/25 06:09:27;;;;;;;64.70;40.40;;;4.40;99.90;;;;;;4986540;28;20431;-82
2022/01/25 06:11:53;;;;;;;66.43;41.73;;;4.40;99.90;;;;;;4998854;28;20390;-82
2022/01/25 06:14:20;;;;;;;67.47;43.08;;;4.40;99.90;;;;;;5006230;28;20378;-82
2022/01/25 06:16:45;;;;;;;67.75;41.50;;;4.40;99.90;;;;;;4988537;28;20877;-82
2022/01/25 06:19:11;;;;;;;66.57;41.88;;;4.30;99.90;;;;;;4988117;28;20403;-82
2022/01/25 06:21:37;;;;;;;68.40;42.65;;;4.40;99.90;;;;;;5004397;28;20411;-82
2022/01/25 06:24:02;;;;;;;71.60;43.58;;;4.40;99.90;;;;;;4976092;28;20964;-83
2022/01/25 06:26:28;;;;;;;69.22;44.20;;;4.40;99.90;;;;;;4969179;28;20980;-82
2022/01/25 06:28:54;;;;;;;68.73;43.60;;;4.40;99.90;;;;;;5003565;28;20379;-82
2022/01/25 06:31:20;;;;;;;71.00;44.60;;;4.30;99.90;;;;;;4988302;28;20470;-82
2022/01/25 06:33:47;;;;;;;66.40;41.37;;;4.40;99.90;;;;;;5005939;28;20391;-82
2022/01/25 06:36:13;;;;;;;69.43;44.60;;;4.40;99.90;;;;;;4991260;28;20438;-82
2022/01/25 06:38:39;;;;;;;65.55;43.10;;;4.40;99.90;;;;;;4991433;28;20396;-83
2022/01/25 06:41:05;;;;;;;71.45;44.20;;;4.40;99.90;;;;;;4990702;28;20869;-82
2022/01/25 06:43:31;;;;;;;71.20;44.72;;;4.30;99.90;;;;;;5009326;28;20379;-82
2022/01/25 06:46:01;;;;;;;72.97;45.00;;;4.30;99.90;;;;;;5009282;28;20383;-82
2022/01/25 06:48:27;;;;;;;70.28;44.22;;;4.30;99.90;;;;;;4991387;28;20403;-82
2022/01/25 06:50:53;;;;;;;72.13;45.00;;;4.30;99.90;;;;;;4991674;28;20418;-83
2022/01/25 06:53:19;;;;;;;74.13;45.03;;;4.30;99.90;;;;;;5009345;28;20411;-81
2022/01/25 06:55:46;;;;;;;69.07;43.40;;;4.30;99.90;;;;;;4991554;28;20437;-82
2022/01/25 06:58:15;;;;;;;67.45;43.28;;;4.30;99.90;;;;;;5009146;28;20379;-82
2022/01/25 07:00:41;;;;;;;68.63;43.22;;;4.30;99.90;;;;;;5008803;28;20960;-82
2022/01/25 07:03:07;;;;;;;66.78;44.00;;;4.30;99.90;;;;;;4990969;28;20494;-82
2022/01/25 07:05:33;;;;;;;70.65;44.63;;;4.40;99.90;;;;;;5008840;28;20420;-82
2022/01/25 07:07:59;;;;;;;66.32;42.95;;;4.40;99.90;;;;;;4991330;28;20394;-82
2022/01/25 07:10:25;;;;;;;71.68;44.20;;;4.40;99.90;;;;;;4991433;28;20427;-82
2022/01/25 07:12:51;;;;;;;69.17;43.83;;;4.40;99.90;;;;;;5008703;28;20374;-82
2022/01/25 07:15:17;;;;;;;68.37;43.40;;;4.40;99.90;;;;;;4990866;28;20400;-83
2022/01/25 07:17:43;;;;;;;66.13;41.55;;;4.50;99.90;;;;;;4991182;28;20394;-82
2022/01/25 07:20:10;;;;;;;72.88;44.15;;;4.50;99.90;;;;;;4991073;28;20407;-83
2022/01/25 07:22:36;;;;;;;71.15;44.53;;;4.50;99.90;;;;;;4990976;28;20952;-82
2022/01/25 07:25:08;;;;;;;72.80;43.78;;;4.40;99.90;;;;;;4991171;28;20388;-83
2022/01/25 07:27:33;;;;;;;69.07;44.10;;;4.30;99.90;;;;;;4991213;28;20466;-82
2022/01/25 07:29:59;;;;;;;69.50;44.22;;;4.40;99.90;;;;;;5008417;28;20884;-82
2022/01/25 07:32:25;;;;;;;68.45;43.55;;;4.40;99.90;;;;;;4991424;28;20384;-82
2022/01/25 07:34:50;;;;;;;70.70;44.45;;;4.40;99.90;;;;;;4991499;28;20405;-81
2022/01/25 07:37:17;;;;;;;73.07;44.70;;;4.30;99.90;;;;;;5008830;28;20869;-83
2022/01/25 07:39:44;;;;;;;70.72;44.22;;;4.30;99.90;;;;;;4991098;28;20380;-83
2022/01/25 07:42:10;;;;;;;73.18;44.17;;;4.40;99.90;;;;;;4990809;28;20425;-82
2022/01/25 07:44:38;;;;;;;70.35;43.17;;;4.40;99.90;;;;;;4989977;28;20718;-82
2022/01/25 07:47:05;;;;;;;71.18;45.03;;;4.50;99.90;;;;;;4990903;28;20441;-82
2022/01/25 07:49:37;;;;;;;70.85;44.35;;;4.50;99.90;;;;;;4989868;28;20395;-82
2022/01/25 07:52:04;;;;;;;72.85;46.05;;;4.50;99.90;;;;;;4990624;28;20400;-82
2022/01/25 07:54:30;;;;;;;74.20;45.72;;;4.50;99.90;;;;;;5008110;28;20375;-82
2022/01/25 07:56:55;;;;;;;73.47;45.53;;;4.40;99.90;;;;;;4990513;28;20911;-83
2022/01/25 07:59:22;;;;;;;73.30;45.08;;;4.50;99.90;;;;;;5008029;28;20799;-82
2022/01/25 08:01:48;;;;;;;73.00;44.03;;;4.50;99.90;;;;;;4990286;28;20495;-82
2022/01/25 08:04:14;;;;;;;73.25;44.00;;;4.70;99.90;;;;;;4990631;28;20419;-82
2022/01/25 08:06:41;;;;;;;72.00;44.40;;;4.60;99.90;;;;;;5006265;28;20496;-83
2022/01/25 08:09:07;;;;;;;71.03;43.67;;;4.70;99.90;;;;;;4973681;28;20393;-82
2022/01/25 08:11:34;;;;;;;72.50;44.83;;;4.70;99.90;;;;;;4988526;28;20408;-83
2022/01/25 08:14:12;;;;;;;68.90;43.33;;;4.80;99.90;;;;;;4983485;28;20413;-83
2022/01/25 08:16:44;;;;;;;71.07;44.00;;;4.80;99.90;;;;;;4975547;28;20412;-82
2022/01/25 08:19:10;;;;;;;67.13;42.93;;;4.90;99.90;;;;;;4977350;28;20415;-82
2022/01/25 08:21:36;;;;;;;68.63;42.00;;;5.00;99.90;;;;;;4986479;28;20404;-82
2022/01/25 08:24:04;;;;;;;70.28;44.20;;;4.90;99.90;;;;;;4970591;28;20382;-81
2022/01/25 08:26:29;;;;;;;67.63;41.83;;;4.90;99.90;;;;;;4988168;28;20394;-82
2022/01/25 08:28:55;;;;;;;65.63;42.22;;;4.90;99.90;;;;;;4971451;28;20743;-82
2022/01/25 08:31:21;;;;;;;66.68;42.47;;;5.00;99.90;;;;;;4987686;28;20409;-82
2022/01/25 08:33:47;;;;;;;66.90;42.88;;;4.90;99.90;;;;;;4970645;28;20443;-82
2022/01/25 08:36:12;;;;;;;66.30;42.63;;;5.00;99.90;;;;;;4988908;28;20925;-82
2022/01/25 08:38:38;;;;;;;69.10;43.03;;;5.00;99.90;;;;;;5006747;28;20440;-82
2022/01/25 08:41:06;;;;;;;70.43;44.00;;;5.00;99.90;;;;;;5007284;28;20756;-83
2022/01/25 08:43:33;;;;;;;67.85;42.95;;;5.10;99.90;;;;;;4979658;28;20957;-82
2022/01/25 08:45:59;;;;;;;65.20;41.92;;;5.10;99.90;;;;;;4980567;28;20399;-82
2022/01/25 08:48:24;;;;;;;71.90;43.55;;;5.10;99.90;;;;;;5002938;28;20420;-82
2022/01/25 08:50:50;;;;;;;73.03;43.83;;;5.10;99.90;;;;;;4970582;28;20504;-82
2022/01/25 08:53:16;;;;;;;70.75;43.60;;;5.10;99.90;;;;;;4988904;28;20384;-82
2022/01/25 08:55:41;;;;;;;70.20;43.17;;;5.20;99.90;;;;;;4988320;28;20387;-82
2022/01/25 08:58:07;;;;;;;73.35;43.70;;;5.20;99.90;;;;;;4986307;28;20446;-83
2022/01/25 09:00:33;;;;;;;70.17;43.30;;;5.30;99.90;;;;;;4970215;28;20413;-82
2022/01/25 09:03:00;;;;;;;67.13;41.77;;;5.30;99.90;;;;;;4970246;28;20464;-81
2022/01/25 09:05:26;;;;;;;67.18;40.53;;;5.30;99.90;;;;;;4969620;28;20799;-83
2022/01/25 09:07:52;;;;;;;66.25;41.45;;;5.30;99.90;;;;;;5006220;28;20532;-82
2022/01/25 09:10:18;;;;;;;65.03;40.00;;;5.30;99.90;;;;;;5006926;28;20495;-82
2022/01/25 09:12:44;;;;;;;61.63;39.57;;;5.20;99.90;;;;;;5007022;28;20513;-83
2022/01/25 09:15:10;;;;;;;63.90;39.90;;;5.20;99.90;;;;;;4989542;28;20384;-82
2022/01/25 09:17:36;;;;;;;66.60;40.90;;;5.40;99.90;;;;;;4972278;28;20396;-83
2022/01/25 09:20:02;;;;;;;64.83;39.83;;;5.40;99.90;;;;;;4969888;28;20501;-83
2022/01/25 09:22:28;;;;;;;65.88;40.83;;;5.40;99.90;;;;;;4969317;28;20393;-82
2022/01/25 09:24:53;;;;;;;61.70;39.28;;;5.40;99.90;;;;;;4987084;28;20478;-83
2022/01/25 09:27:19;;;;;;;63.57;38.30;;;5.50;99.90;;;;;;4986840;28;20401;-82
2022/01/25 09:29:45;;;;;;;60.37;38.27;;;5.50;99.90;;;;;;5003409;28;20401;-83
2022/01/25 09:32:10;;;;;;;58.60;37.20;;;5.60;99.90;;;;;;5008478;28;20392;-83
2022/01/25 09:34:36;;;;;;;60.38;38.22;;;5.60;99.90;;;;;;4991830;28;20912;-82
2022/01/25 09:37:03;;;;;;;59.05;37.55;;;5.60;99.90;;;;;;4975231;28;20434;-83
2022/01/25 09:39:28;;;;;;;61.30;38.05;;;5.50;99.90;;;;;;4975321;28;21130;-83
2022/01/25 09:41:57;;;;;;;59.67;37.35;;;5.60;99.90;;;;;;4978197;28;20434;-83
2022/01/25 09:44:23;;;;;;;61.50;38.38;;;5.60;99.90;;;;;;4989412;28;20395;-83
2022/01/25 09:46:53;;;;;;;66.47;39.60;;;5.70;99.90;;;;;;4995966;28;20416;-81
2022/01/25 09:49:19;;;;;;;59.00;37.65;;;5.70;99.90;;;;;;4990688;28;20475;-82
2022/01/25 09:51:47;;;;;;;60.70;37.67;;;5.70;99.90;;;;;;4993960;28;20463;-82
2022/01/25 09:54:13;;;;;;;60.92;37.45;;;5.70;99.90;;;;;;4988576;28;20375;-83
2022/01/25 09:56:39;;;;;;;60.95;37.65;;;5.80;99.90;;;;;;4981564;28;20399;-82
2022/01/25 09:59:04;;;;;;;58.92;37.28;;;5.70;99.90;;;;;;4991211;28;20392;-83
2022/01/25 10:01:31;;;;;;;63.27;36.97;;;5.70;99.90;;;;;;4970160;28;20755;-83
2022/01/25 10:04:04;;;;;;;63.23;37.57;;;5.60;99.90;;;;;;4987134;28;20482;-82
2022/01/25 10:06:32;;;;;;;66.25;38.50;;;5.70;99.90;;;;;;4970678;28;20417;-83
2022/01/25 10:08:58;;;;;;;63.15;38.03;;;5.60;99.90;;;;;;4974151;28;20395;-82
2022/01/25 10:11:25;;;;;;;65.93;38.40;;;5.60;99.90;;;;;;5076247;28;20414;-82
2022/01/25 10:13:57;;;;;;;62.78;38.25;;;5.60;99.90;;;;;;5092398;28;20755;-82
2022/01/25 10:16:34;;;;;;;65.90;38.33;;;5.60;99.90;;;;;;5090124;28;20501;-83
2022/01/25 10:19:06;;;;;;;67.28;39.78;;;5.50;99.90;;;;;;5090550;28;20382;-83
2022/01/25 10:21:33;;;;;;;67.30;38.28;;;5.50;99.90;;;;;;5089864;28;20930;-83
2022/01/25 10:24:04;;;;;;;63.42;37.47;;;5.70;99.90;;;;;;5033312;28;20403;-83
2022/01/25 10:26:39;;;;;;;63.70;37.40;;;5.80;99.90;;;;;;4987665;28;20478;-82
2022/01/25 10:29:06;;;;;;;56.75;35.05;;;5.90;99.90;;;;;;4984942;28;20757;-83
2022/01/25 10:31:42;;;;;;;55.10;34.78;;;6.10;99.90;;;;;;4983309;28;20413;-82
2022/01/25 10:34:10;;;;;;;53.55;34.28;;;6.20;99.90;;;;;;5003450;28;20407;-82
2022/01/25 10:36:43;;;;;;;53.27;34.13;;;6.30;99.90;;;;;;4988722;28;20395;-83
2022/01/25 10:39:09;;;;;;;49.45;32.42;;;6.30;99.90;;;;;;5005932;28;20942;-83
2022/01/25 10:41:38;;;;;;;49.40;31.25;;;6.30;99.90;;;;;;4983153;28;20445;-83
2022/01/25 10:44:06;;;;;;;46.73;29.97;;;6.20;99.90;;;;;;4994963;28;20397;-82
2022/01/25 10:46:33;;;;;;;49.42;30.02;;;6.30;99.90;;;;;;4970586;28;20862;-83
2022/01/25 10:49:02;;;;;;;43.38;28.52;;;6.30;99.90;;;;;;4970033;28;20432;-82
2022/01/25 10:51:35;;;;;;;40.08;27.27;;;6.20;99.90;;;;;;4986540;28;20425;-85
2022/01/25 10:54:14;;;;;;;42.47;27.60;;;6.20;99.90;;;;;;4987032;28;20409;-82
2022/01/25 10:56:47;;;;;;;41.17;27.40;;;6.10;99.90;;;;;;4968574;28;20963;-82
2022/01/25 10:59:33;;;;;;;42.53;27.73;;;6.10;99.90;;;;;;4986056;28;20435;-82
2022/01/25 11:02:05;;;;;;;42.63;27.08;;;6.10;99.90;;;;;;4997649;28;20402;-82
2022/01/25 11:04:37;;;;;;;40.83;27.27;;;6.30;99.90;;;;;;4951969;28;20431;-83
2022/01/25 11:07:10;;;;;;;41.50;27.25;;;6.10;99.90;;;;;;4982690;28;20436;-82
2022/01/25 11:09:44;;;;;;;43.00;26.83;;;6.10;99.90;;;;;;4996344;28;20432;-83
2022/01/25 11:12:15;;;;;;;43.17;27.97;;;6.00;99.90;;;;;;4968089;28;20485;-82
2022/01/25 11:14:50;;;;;;;43.70;26.57;;;6.10;99.90;;;;;;4981941;28;20414;-83
2022/01/25 11:17:18;;;;;;;39.67;26.48;;;6.10;99.90;;;;;;4987824;28;20893;-83
2022/01/25 11:19:44;;;;;;;42.63;26.73;;;6.20;99.90;;;;;;4972038;28;20838;-84
2022/01/25 11:22:11;;;;;;;40.72;25.75;;;6.30;99.90;;;;;;4980424;28;20908;-83
2022/01/25 11:24:38;;;;;;;44.78;28.55;;;6.10;99.90;;;;;;4965740;28;20465;-83
2022/01/25 11:27:07;;;;;;;43.35;27.60;;;6.10;99.90;;;;;;4988595;28;20755;-82
2022/01/25 11:29:39;;;;;;;42.78;26.38;;;6.10;99.90;;;;;;4975244;28;20414;-83
2022/01/25 11:32:11;;;;;;;42.72;26.88;;;6.10;99.90;;;;;;4991093;28;20383;-82
2022/01/25 11:34:39;;;;;;;41.90;26.77;;;6.10;99.90;;;;;;4999057;28;20437;-82
2022/01/25 11:37:07;;;;;;;42.17;26.17;;;6.30;99.90;;;;;;4975554;28;20417;-83
2022/01/25 11:39:35;;;;;;;39.25;24.92;;;6.40;99.90;;;;;;5000285;28;20391;-82
2022/01/25 11:42:10;;;;;;;41.50;26.08;;;6.30;99.90;;;;;;4989416;28;20446;-83
2022/01/25 11:44:58;;;;;;;38.08;24.77;;;6.40;99.90;;;;;;5009074;28;20449;-83
2022/01/25 11:47:37;;;;;;;42.58;26.45;;;6.20;99.90;;;;;;5006073;28;20431;-82
2022/01/25 11:50:05;;;;;;;43.07;27.10;;;6.10;99.90;;;;;;5008361;28;20430;-82
2022/01/25 11:52:31;;;;;;;41.90;26.23;;;6.10;99.90;;;;;;4988206;28;20464;-83
2022/01/25 11:55:21;;;;;;;47.30;27.75;;;6.00;99.90;;;;;;5004953;28;20375;-83
2022/01/25 11:57:48;;;;;;;42.30;27.20;;;6.10;99.90;;;;;;4979749;28;20401;-82
2022/01/25 12:00:14;;;;;;;43.25;27.15;;;6.10;99.90;;;;;;5005056;28;20549;-83
2022/01/25 12:02:46;;;;;;;42.38;26.83;;;6.00;99.90;;;;;;5003529;28;20415;-82
2022/01/25 12:05:18;;;;;;;41.22;26.52;;;6.00;99.90;;;;;;4989479;28;20452;-83
2022/01/25 12:08:15;;;;;;;42.08;26.83;;;5.90;99.90;;;;;;5025884;28;20399;-83
2022/01/25 12:10:45;;;;;;;45.83;27.97;;;6.00;99.90;;;;;;5112695;28;20426;-83
2022/01/25 12:13:29;;;;;;;43.35;27.27;;;6.00;99.90;;;;;;5111322;28;20409;-83
2022/01/25 12:16:27;;;;;;;45.10;26.63;;;6.00;99.90;;;;;;5030820;28;20444;-83
2022/01/25 12:18:59;;;;;;;55.45;29.27;;;5.90;99.90;;;;;;5008941;28;20440;-83
2022/01/25 12:21:51;;;;;;;45.15;28.77;;;6.00;99.90;;;;;;5007720;28;20395;-83
2022/01/25 12:24:43;;;;;;;48.70;30.17;;;5.90;99.90;;;;;;4983944;28;20397;-82
2022/01/25 12:27:26;;;;;;;47.35;29.98;;;5.90;99.90;;;;;;4987356;28;20399;-83
2022/01/25 12:30:00;;;;;;;47.22;28.38;;;5.90;99.90;;;;;;4978164;28;20425;-82
2022/01/25 12:32:35;;;;;;;45.92;28.48;;;5.90;99.90;;;;;;5007830;28;20438;-82
2022/01/25 12:35:06;;;;;;;45.10;27.55;;;5.90;99.90;;;;;;4983715;28;20421;-83
2022/01/25 12:37:56;;;;;;;41.47;27.83;;;5.90;99.90;;;;;;4982429;28;20396;-83
2022/01/25 12:48:17;;;;;;;49.42;29.52;;;6.00;99.90;;;;;;3325311;26;20439;-80
2022/01/25 12:50:45;;;;;;;49.83;28.93;;;6.00;99.90;;;;;;4971687;28;20476;-82
2022/01/25 12:53:15;;;;;;;47.10;29.17;;;5.90;99.90;;;;;;4986256;28;20397;-81
2022/01/25 12:55:44;;;;;;;42.85;27.02;;;5.80;99.90;;;;;;4979772;28;20880;-80
2022/01/25 12:58:10;;;;;;;48.47;29.50;;;5.90;99.90;;;;;;5041193;28;20450;-80
2022/01/25 13:00:41;;;;;;;49.85;30.13;;;5.80;99.90;;;;;;4960548;28;20494;-80
2022/01/25 13:03:17;;;;;;;49.67;29.90;;;5.80;99.90;;;;;;4953499;28;20450;-80
2022/01/25 13:05:56;;;;;;;52.35;29.63;;;5.80;99.90;;;;;;5021403;28;20423;-78
2022/01/25 13:08:21;;;;;;;52.58;31.33;;;5.80;99.90;;;;;;5041474;28;20386;-80
2022/01/25 13:10:50;;;;;;;51.27;30.37;;;5.70;99.90;;;;;;4972331;28;20444;-80
2022/01/25 13:13:44;;;;;;;53.00;30.88;;;5.80;99.90;;;;;;5029484;28;20978;-81
2022/01/25 13:16:09;;;;;;;51.42;30.52;;;5.90;99.90;;;;;;5045941;28;20852;-80
2022/01/25 13:18:40;;;;;;;46.53;28.77;;;5.90;99.90;;;;;;5000816;28;20429;-80
2022/01/25 13:21:09;;;;;;;48.17;28.67;;;6.00;99.90;;;;;;5035221;28;20889;-80
2022/01/25 13:23:49;;;;;;;50.60;30.90;;;6.00;99.90;;;;;;4968288;28;20869;-80
2022/01/25 13:26:16;;;;;;;52.30;31.00;;;5.90;99.90;;;;;;5025338;28;21593;-80
2022/01/25 13:31:16;;;;;;;50.60;29.77;;;5.80;99.90;;;;;;4950771;29;20479;-79
2022/01/25 13:33:43;;;;;;;51.22;30.75;;;5.80;99.90;;;;;;4950765;29;20392;-79
2022/01/25 13:36:20;;;;;;;51.53;30.73;;;5.80;99.90;;;;;;4952940;28;20396;-81
2022/01/25 13:38:48;;;;;;;50.03;30.07;;;5.80;99.90;;;;;;5018910;28;20543;-81
2022/01/25 13:41:25;;;;;;;50.05;31.23;;;5.90;99.90;;;;;;5018162;28;20886;-79
2022/01/25 13:46:24;;;;;;;51.58;31.42;;;5.90;99.90;;;;;;4952784;29;20393;-79
2022/01/25 13:48:50;;;;;;;52.15;32.30;;;5.80;99.90;;;;;;5020252;28;20727;-80
2022/01/25 13:51:21;;;;;;;53.80;31.50;;;5.80;99.90;;;;;;4954865;29;20412;-79
2022/01/25 13:53:56;;;;;;;54.38;31.83;;;6.00;99.90;;;;;;5018977;28;20969;-80
2022/01/25 13:56:28;;;;;;;56.65;32.50;;;6.10;99.90;;;;;;5004285;28;20468;-80
2022/01/25 13:58:54;;;;;;;49.50;30.55;;;6.00;99.90;;;;;;4954388;29;20372;-80
2022/01/25 14:01:23;;;;;;;53.70;32.35;;;6.00;99.90;;;;;;4953217;28;20391;-80
2022/01/25 14:04:01;;;;;;;57.78;31.55;;;5.90;99.90;;;;;;4952833;29;20392;-80
2022/01/25 14:06:30;;;;;;;58.92;32.88;;;5.80;99.90;;;;;;4953263;28;20388;-81
2022/01/25 14:09:09;;;;;;;61.00;33.10;;;5.90;99.90;;;;;;4953874;28;20426;-80
2022/01/25 14:24:54;;;;;;;47.08;27.80;;;5.60;99.90;;;;;;4953733;29;20395;-80
2022/01/25 14:27:28;;;;;;;49.20;28.35;;;5.70;99.90;;;;;;4954886;28;20431;-81
2022/01/25 14:29:54;;;;;;;49.42;28.30;;;5.70;99.90;;;;;;4954298;29;20438;-80
2022/01/25 14:32:28;;;;;;;52.45;28.52;;;5.80;99.90;;;;;;5035584;28;20455;-81
2022/01/25 14:35:09;;;;;;;47.47;28.13;;;5.80;99.90;;;;;;4994745;28;20389;-81
2022/01/25 14:37:45;;;;;;;47.90;26.80;;;5.80;99.90;;;;;;5030181;28;20883;-81
2022/01/25 14:40:15;;;;;;;49.38;27.63;;;5.70;99.90;;;;;;5055623;28;20942;-81
2022/01/25 14:42:43;;;;;;;51.58;28.90;;;5.70;99.90;;;;;;5075914;28;20398;-81
2022/01/25 14:45:13;;;;;;;54.00;30.38;;;5.70;99.90;;;;;;5074145;28;20361;-81
2022/01/25 14:47:42;;;;;;;54.83;30.73;;;5.70;99.90;;;;;;5075667;28;20397;-80
2022/01/25 14:50:15;;;;;;;53.75;30.35;;;5.70;99.90;;;;;;5054721;28;20989;-80
2022/01/25 14:52:41;;;;;;;55.42;31.00;;;5.80;99.90;;;;;;4985728;28;20395;-81
2022/01/25 14:55:20;;;;;;;51.05;30.20;;;5.70;99.90;;;;;;4971317;28;20417;-81
2022/01/25 15:00:55;;;;;;;53.90;30.23;;;5.70;99.90;;;;;;4944219;28;20418;-80
2022/01/25 15:03:24;;;;;;;56.00;31.25;;;5.70;99.90;;;;;;5031136;28;20605;-80
2022/01/25 15:05:51;;;;;;;58.97;31.80;;;5.60;99.90;;;;;;5034141;28;20399;-81